createdAt,value
2023-09-25T00:01:48.318Z,5.20
2023-09-25T00:04:17.235Z,5.80
2023-09-25T00:06:47.669Z,7.10
2023-09-25T00:09:16.216Z,11.68
2023-09-25T00:11:45.766Z,9.25
2023-09-25T00:14:15.057Z,10.35
2023-09-25T00:16:43.614Z,8.65
2023-09-25T00:19:12.781Z,3.03
2023-09-25T00:21:41.971Z,6.13
2023-09-25T00:24:12.222Z,8.95
2023-09-25T00:26:40.746Z,8.30
2023-09-25T00:29:09.484Z,6.63
2023-09-25T00:31:38.585Z,9.27
2023-09-25T00:34:07.253Z,11.13
2023-09-25T00:36:36.032Z,8.07
2023-09-25T00:39:07.488Z,7.75
2023-09-25T00:41:38.134Z,5.05
2023-09-25T00:44:06.817Z,5.00
2023-09-25T00:46:35.320Z,5.60
2023-09-25T00:49:04.028Z,5.32
2023-09-25T00:51:32.604Z,9.13
2023-09-25T00:54:00.999Z,7.70
2023-09-25T00:56:29.582Z,12.77
2023-09-25T00:59:00.318Z,6.25
2023-09-25T01:03:58.403Z,6.00
2023-09-25T01:06:26.885Z,6.32
2023-09-25T01:08:55.527Z,5.57
2023-09-25T01:11:24.103Z,4.55
2023-09-25T01:13:53.914Z,11.73
2023-09-25T01:16:25.815Z,8.32
2023-09-25T01:21:24.144Z,9.80
2023-09-25T01:23:54.295Z,6.60
2023-09-25T01:26:23.110Z,8.13
2023-09-25T01:28:51.950Z,7.47
2023-09-25T01:31:20.549Z,7.78
2023-09-25T01:33:49.499Z,5.30
2023-09-25T01:36:18.428Z,12.38
2023-09-25T01:38:48.004Z,8.48
2023-09-25T01:41:19.076Z,4.38
2023-09-25T01:46:18.466Z,8.30
2023-09-25T01:51:17.031Z,6.57
2023-09-25T01:53:47.459Z,7.75
2023-09-25T01:56:17.751Z,12.10
2023-09-25T01:58:46.336Z,7.38
2023-09-25T02:01:14.722Z,6.53
2023-09-25T02:03:44.607Z,9.45
2023-09-25T02:06:14.410Z,8.55
2023-09-25T02:08:43.543Z,11.05
2023-09-25T02:11:12.091Z,5.65
2023-09-25T02:13:43.043Z,13.57
2023-09-25T02:16:11.931Z,10.57
2023-09-25T02:18:40.470Z,12.52
2023-09-25T02:21:09.237Z,10.50
2023-09-25T02:23:40.373Z,7.13
2023-09-25T02:26:09.141Z,15.40
2023-09-25T02:28:37.514Z,8.27
2023-09-25T02:31:08.748Z,8.35
2023-09-25T02:33:37.697Z,7.85
2023-09-25T02:36:07.295Z,4.85
2023-09-25T02:38:36.636Z,6.28
2023-09-25T02:41:05.774Z,8.00
2023-09-25T02:43:34.339Z,9.63
2023-09-25T02:46:03.330Z,6.20
2023-09-25T02:48:34.710Z,11.23
2023-09-25T02:51:03.478Z,8.57
2023-09-25T02:53:33.296Z,8.77
2023-09-25T02:56:01.985Z,10.35
2023-09-25T02:58:31.402Z,9.23
2023-09-25T03:01:01.349Z,9.88
2023-09-25T03:03:31.526Z,10.87
2023-09-25T03:06:01.503Z,6.97
2023-09-25T03:08:30.016Z,6.43
2023-09-25T03:10:58.800Z,8.77
2023-09-25T03:13:27.262Z,7.85
2023-09-25T03:15:56.107Z,8.57
2023-09-25T03:18:24.737Z,7.32
2023-09-25T03:20:53.310Z,5.78
2023-09-25T03:23:23.781Z,8.65
2023-09-25T03:25:52.433Z,6.25
2023-09-25T03:28:21.653Z,9.52
2023-09-25T03:30:50.970Z,5.43
2023-09-25T03:33:19.879Z,4.60
2023-09-25T03:35:48.607Z,5.95
2023-09-25T03:38:17.168Z,9.63
2023-09-25T03:40:47.394Z,5.25
2023-09-25T03:43:15.955Z,5.72
2023-09-25T03:45:44.721Z,4.55
2023-09-25T03:48:13.308Z,7.60
2023-09-25T03:50:42.046Z,7.38
2023-09-25T03:53:12.549Z,10.73
2023-09-25T03:55:41.396Z,8.77
2023-09-25T03:58:11.608Z,9.32
2023-09-25T04:00:40.941Z,5.32
2023-09-25T04:03:09.785Z,6.82
2023-09-25T04:05:38.440Z,6.10
2023-09-25T04:08:07.418Z,11.00
2023-09-25T04:10:35.852Z,7.30
2023-09-25T04:13:04.317Z,6.70
2023-09-25T04:15:34.083Z,10.23
2023-09-25T04:18:03.007Z,7.70
2023-09-25T04:20:33.495Z,9.07
2023-09-25T04:23:01.858Z,10.90
2023-09-25T04:25:30.511Z,7.38
2023-09-25T04:27:59.121Z,9.45
2023-09-25T04:30:29.344Z,9.38
2023-09-25T04:33:00.294Z,14.10
2023-09-25T04:35:29.877Z,10.88
2023-09-25T04:37:58.473Z,9.90
2023-09-25T04:40:32.317Z,11.48
2023-09-25T04:43:01.911Z,10.82
2023-09-25T04:45:31.243Z,10.80
2023-09-25T04:48:01.978Z,9.70
2023-09-25T04:50:31.338Z,10.25
2023-09-25T04:53:00.001Z,12.00
2023-09-25T04:55:28.353Z,8.70
2023-09-25T04:57:57.081Z,12.95
2023-09-25T05:00:28.078Z,6.40
2023-09-25T05:02:57.967Z,12.02
2023-09-25T05:05:28.575Z,11.80
2023-09-25T05:07:59.055Z,9.15
2023-09-25T05:10:28.923Z,11.63
2023-09-25T05:12:58.319Z,9.63
2023-09-25T05:15:27.417Z,9.20
2023-09-25T05:17:56.437Z,7.65
2023-09-25T05:20:26.960Z,9.98
2023-09-25T05:22:58.906Z,6.57
2023-09-25T05:25:28.374Z,7.95
2023-09-25T05:27:58.384Z,6.00
2023-09-25T05:30:26.949Z,7.70
2023-09-25T05:32:55.847Z,8.88
2023-09-25T05:35:24.888Z,9.73
2023-09-25T05:37:54.498Z,7.43
2023-09-25T05:40:25.131Z,8.85
2023-09-25T05:42:53.798Z,8.18
2023-09-25T05:45:23.045Z,6.13
2023-09-25T05:47:51.948Z,7.10
2023-09-25T05:50:20.816Z,8.88
2023-09-25T05:52:49.576Z,7.90
2023-09-25T05:55:18.267Z,7.10
2023-09-25T05:57:48.264Z,9.27
2023-09-25T06:00:19.661Z,11.10
2023-09-25T06:02:50.114Z,10.23
2023-09-25T06:05:19.409Z,5.15
2023-09-25T06:07:48.166Z,9.48
2023-09-25T06:10:19.455Z,9.35
2023-09-25T06:12:51.930Z,7.40
2023-09-25T06:15:24.944Z,8.98
2023-09-25T06:17:54.606Z,10.25
2023-09-25T06:20:26.175Z,9.00
2023-09-25T06:22:55.100Z,9.15
2023-09-25T06:25:23.996Z,9.02
2023-09-25T06:27:54.539Z,8.93
2023-09-25T06:30:23.451Z,6.50
2023-09-25T06:32:52.430Z,10.35
2023-09-25T06:35:21.192Z,7.22
2023-09-25T06:37:50.050Z,10.60
2023-09-25T06:40:20.546Z,10.25
2023-09-25T06:42:49.673Z,14.07
2023-09-25T06:45:22.857Z,14.30
2023-09-25T06:47:52.010Z,12.80
2023-09-25T06:50:20.976Z,13.25
2023-09-25T06:52:49.493Z,14.48
2023-09-25T06:55:18.163Z,11.00
2023-09-25T06:57:47.352Z,18.02
2023-09-25T07:00:16.498Z,17.17
2023-09-25T07:02:46.909Z,13.63
2023-09-25T07:05:16.488Z,7.28
2023-09-25T07:07:45.566Z,11.75
2023-09-25T07:10:14.245Z,9.73
2023-09-25T07:12:43.976Z,14.30
2023-09-25T07:15:13.596Z,11.33
2023-09-25T07:17:42.641Z,10.68
2023-09-25T07:20:13.588Z,18.65
2023-09-25T07:22:43.556Z,9.00
2023-09-25T07:25:11.921Z,9.90
2023-09-25T07:27:43.100Z,8.23
2023-09-25T07:30:12.772Z,14.82
2023-09-25T07:32:43.722Z,6.60
2023-09-25T07:35:16.619Z,11.98
2023-09-25T07:37:45.789Z,14.55
2023-09-25T07:40:15.878Z,11.32
2023-09-25T07:42:45.109Z,9.32
2023-09-25T07:45:16.322Z,14.55
2023-09-25T07:47:45.709Z,10.85
2023-09-25T07:50:15.881Z,11.63
2023-09-25T07:52:44.497Z,23.73
2023-09-25T07:55:13.560Z,12.23
2023-09-25T07:57:44.075Z,13.20
2023-09-25T08:00:18.971Z,12.38
2023-09-25T08:02:49.191Z,16.60
2023-09-25T08:05:19.842Z,14.13
2023-09-25T08:07:49.721Z,12.98
2023-09-25T08:10:19.547Z,12.20
2023-09-25T08:12:48.331Z,14.83
2023-09-25T08:15:17.260Z,11.93
2023-09-25T08:17:47.181Z,15.00
2023-09-25T08:20:22.153Z,12.25
2023-09-25T08:22:59.857Z,15.23
2023-09-25T08:25:28.748Z,13.30
2023-09-25T08:27:57.644Z,10.98
2023-09-25T08:30:26.310Z,24.42
2023-09-25T08:32:55.791Z,13.05
2023-09-25T08:35:25.362Z,12.93
2023-09-25T08:37:55.305Z,13.13
2023-09-25T08:40:24.307Z,17.60
2023-09-25T08:43:05.106Z,15.73
2023-09-25T08:45:44.653Z,15.68
2023-09-25T08:48:13.761Z,14.85
2023-09-25T08:50:43.114Z,12.18
2023-09-25T08:53:13.248Z,15.18
2023-09-25T08:55:42.563Z,12.00
2023-09-25T08:58:11.844Z,10.35
2023-09-25T09:00:42.150Z,14.75
2023-09-25T09:03:11.043Z,10.98
2023-09-25T09:05:39.946Z,12.65
2023-09-25T09:08:09.618Z,8.75
2023-09-25T09:10:41.547Z,13.25
2023-09-25T09:13:12.158Z,9.15
2023-09-25T09:15:42.744Z,10.52
2023-09-25T09:18:26.242Z,9.85
2023-09-25T09:20:56.747Z,7.82
2023-09-25T09:23:42.185Z,12.80
2023-09-25T09:26:15.357Z,8.68
2023-09-25T09:28:44.943Z,9.77
2023-09-25T09:31:13.509Z,9.27
2023-09-25T09:33:43.721Z,13.07
2023-09-25T09:36:14.204Z,11.32
2023-09-25T09:38:47.588Z,9.30
2023-09-25T09:41:19.520Z,11.75
2023-09-25T09:43:49.744Z,9.57
2023-09-25T09:46:18.937Z,11.68
2023-09-25T09:48:49.810Z,14.10
2023-09-25T09:53:48.312Z,10.25
2023-09-25T09:56:22.127Z,13.23
2023-09-25T09:58:51.799Z,7.75
2023-09-25T10:01:21.521Z,10.73
2023-09-25T10:03:51.114Z,9.33
2023-09-25T10:06:20.156Z,8.60
2023-09-25T10:09:02.094Z,11.05
2023-09-25T10:11:32.148Z,6.00
2023-09-25T10:14:05.493Z,12.50
2023-09-25T10:17:09.808Z,8.77
2023-09-25T10:19:50.275Z,9.32
2023-09-25T10:22:21.833Z,6.55
2023-09-25T10:25:04.040Z,10.23
2023-09-25T10:27:34.396Z,9.20
2023-09-25T10:30:12.952Z,8.50
2023-09-25T10:32:44.071Z,11.77
2023-09-25T10:35:38.393Z,11.18
2023-09-25T10:41:01.629Z,7.68
2023-09-25T10:43:32.897Z,12.25
2023-09-25T10:46:01.916Z,10.93
2023-09-25T10:48:33.366Z,6.93
2023-09-25T10:51:02.742Z,10.82
2023-09-25T10:53:34.189Z,8.05
2023-09-25T10:56:02.501Z,11.05
2023-09-25T10:58:32.873Z,8.68
2023-09-25T11:01:06.398Z,7.55
2023-09-25T11:03:38.236Z,9.10
2023-09-25T11:06:07.495Z,9.02
2023-09-25T11:08:36.270Z,8.10
2023-09-25T11:11:04.862Z,7.20
2023-09-25T11:13:35.012Z,7.75
2023-09-25T11:16:04.802Z,6.07
2023-09-25T11:18:34.142Z,5.93
2023-09-25T11:21:02.882Z,10.82
2023-09-25T11:23:34.961Z,8.15
2023-09-25T11:26:05.360Z,8.27
2023-09-25T11:28:35.062Z,8.50
2023-09-25T11:31:04.644Z,6.30
2023-09-25T11:33:34.516Z,11.55
2023-09-25T11:36:12.001Z,10.30
2023-09-25T11:38:54.737Z,7.28
2023-09-25T11:41:31.901Z,7.45
2023-09-25T11:44:11.007Z,5.28
2023-09-25T11:46:40.318Z,8.38
2023-09-25T11:49:09.364Z,8.52
2023-09-25T11:51:38.493Z,11.32
2023-09-25T11:54:07.227Z,11.13
2023-09-25T11:56:35.889Z,8.57
2023-09-25T11:59:05.206Z,6.93
2023-09-25T12:01:37.970Z,8.23
2023-09-25T12:04:06.661Z,5.80
2023-09-25T12:06:36.224Z,10.07
2023-09-25T12:09:12.827Z,5.80
2023-09-25T12:11:43.519Z,7.97
2023-09-25T12:14:12.801Z,9.18
2023-09-25T12:16:43.531Z,7.30
2023-09-25T12:19:13.254Z,10.38
2023-09-25T12:21:42.385Z,6.55
2023-09-25T12:24:11.413Z,5.53
2023-09-25T12:26:40.767Z,7.63
2023-09-25T12:29:11.613Z,8.20
2023-09-25T12:31:40.180Z,9.02
2023-09-25T12:34:10.293Z,7.63
2023-09-25T12:36:39.972Z,5.20
2023-09-25T12:39:10.577Z,11.68
2023-09-25T12:41:40.755Z,6.80
2023-09-25T12:44:09.366Z,6.68
2023-09-25T12:46:38.351Z,7.60
2023-09-25T12:49:06.996Z,6.88
2023-09-25T12:51:37.674Z,8.00
2023-09-25T12:54:06.907Z,10.13
2023-09-25T12:56:36.000Z,8.80
2023-09-25T12:59:04.444Z,7.25
2023-09-25T13:01:32.758Z,8.13
2023-09-25T13:04:01.315Z,9.30
2023-09-25T13:06:30.399Z,6.90
2023-09-25T13:09:02.284Z,8.35
2023-09-25T13:11:35.318Z,8.40
2023-09-25T13:14:05.499Z,7.18
2023-09-25T13:19:03.368Z,8.57
2023-09-25T13:21:31.832Z,7.35
2023-09-25T13:24:01.504Z,6.75
2023-09-25T13:26:30.092Z,8.00
2023-09-25T13:28:59.084Z,7.20
2023-09-25T13:31:27.759Z,6.15
2023-09-25T13:33:56.499Z,11.07
2023-09-25T13:36:26.669Z,7.05
2023-09-25T13:41:25.733Z,8.30
2023-09-25T13:43:54.152Z,8.88
2023-09-25T13:46:22.975Z,8.18
2023-09-25T13:48:51.758Z,6.75
2023-09-25T13:51:20.426Z,7.40
2023-09-25T13:53:49.729Z,9.60
2023-09-25T13:56:19.530Z,6.67
2023-09-25T13:58:49.189Z,9.77
2023-09-25T14:01:17.782Z,9.23
2023-09-25T14:03:46.204Z,7.68
2023-09-25T14:06:14.516Z,10.23
2023-09-25T14:08:43.266Z,7.63
2023-09-25T14:11:11.858Z,10.32
2023-09-25T14:13:40.643Z,9.30
2023-09-25T14:16:12.219Z,5.07
2023-09-25T14:18:41.057Z,9.10
2023-09-25T14:21:09.452Z,12.82
2023-09-25T14:23:37.782Z,6.60
2023-09-25T14:26:06.342Z,7.30
2023-09-25T14:28:34.971Z,10.68
2023-09-25T14:31:05.974Z,8.95
2023-09-25T14:33:40.586Z,9.80
2023-09-25T14:36:10.620Z,10.90
2023-09-25T14:38:39.204Z,8.32
2023-09-25T14:41:07.984Z,7.80
2023-09-25T14:43:36.197Z,9.00
2023-09-25T14:46:04.777Z,13.52
2023-09-25T14:48:34.115Z,7.47
2023-09-25T14:51:04.427Z,8.43
2023-09-25T14:53:33.267Z,9.93
2023-09-25T14:56:01.451Z,9.80
2023-09-25T14:58:29.709Z,7.68
2023-09-25T15:00:59.149Z,10.10
2023-09-25T15:03:28.011Z,10.30
2023-09-25T15:05:56.956Z,9.45
2023-09-25T15:08:26.939Z,8.52
2023-09-25T15:10:56.059Z,11.93
2023-09-25T15:13:24.863Z,8.82
2023-09-25T15:15:53.287Z,7.38
2023-09-25T15:18:21.697Z,11.02
2023-09-25T15:20:50.007Z,10.13
2023-09-25T15:23:18.379Z,8.88
2023-09-25T15:25:48.221Z,7.43
2023-09-25T15:28:16.710Z,9.90
2023-09-25T15:30:44.978Z,8.02
2023-09-25T15:33:13.289Z,9.02
2023-09-25T15:35:41.721Z,7.68
2023-09-25T15:38:09.955Z,15.13
2023-09-25T15:40:40.146Z,6.10
2023-09-25T15:43:10.003Z,7.88
2023-09-25T15:45:38.398Z,8.40
2023-09-25T15:48:07.204Z,6.03
2023-09-25T15:50:35.508Z,9.68
2023-09-25T15:53:03.755Z,8.65
2023-09-25T15:55:31.954Z,9.60
2023-09-25T15:58:00.351Z,12.10
2023-09-25T16:00:30.794Z,9.70
2023-09-25T16:03:08.121Z,10.80
2023-09-25T16:05:36.974Z,8.50
2023-09-25T16:08:06.050Z,8.93
2023-09-25T16:10:34.370Z,8.23
2023-09-25T16:13:03.220Z,8.95
2023-09-25T16:15:37.497Z,13.95
2023-09-25T16:18:06.966Z,10.45
2023-09-25T16:20:36.906Z,12.80
2023-09-25T16:23:05.952Z,11.57
2023-09-25T16:25:34.425Z,10.48
2023-09-25T16:28:02.954Z,10.80
2023-09-25T16:30:31.757Z,10.20
2023-09-25T16:33:01.721Z,11.90
2023-09-25T16:35:30.748Z,8.98
2023-09-25T16:38:00.210Z,11.82
2023-09-25T16:40:28.954Z,9.20
2023-09-25T16:42:57.325Z,10.68
2023-09-25T16:45:26.132Z,11.68
2023-09-25T16:47:54.764Z,8.82
2023-09-25T16:50:24.659Z,6.78
2023-09-25T16:52:53.089Z,11.10
2023-09-25T16:55:21.457Z,10.90
2023-09-25T16:57:50.087Z,12.40
2023-09-25T17:00:21.457Z,10.93
2023-09-25T17:02:50.288Z,10.85
2023-09-25T17:05:19.676Z,7.55
2023-09-25T17:07:52.045Z,12.32
2023-09-25T17:10:20.303Z,13.93
2023-09-25T17:12:48.783Z,11.38
2023-09-25T17:15:18.623Z,16.02
2023-09-25T17:17:51.146Z,8.15
2023-09-25T17:20:20.604Z,10.32
2023-09-25T17:23:02.079Z,12.13
2023-09-25T17:25:33.527Z,10.52
2023-09-25T17:28:07.427Z,11.88
2023-09-25T17:30:37.897Z,18.05
2023-09-25T17:33:08.426Z,9.10
2023-09-25T17:35:38.490Z,13.90
2023-09-25T17:38:09.174Z,11.18
2023-09-25T17:43:09.590Z,11.05
2023-09-25T17:45:38.858Z,13.52
2023-09-25T17:48:08.495Z,8.93
2023-09-25T17:50:37.548Z,10.73
2023-09-25T17:53:06.799Z,9.15
2023-09-25T17:55:36.816Z,11.73
2023-09-25T17:58:16.077Z,10.90
2023-09-25T18:00:52.499Z,11.73
2023-09-25T18:03:22.068Z,13.48
2023-09-25T18:05:53.724Z,13.52
2023-09-25T18:08:22.962Z,14.10
2023-09-25T18:10:54.407Z,10.95
2023-09-25T18:13:23.216Z,13.40
2023-09-25T18:15:52.981Z,12.52
2023-09-25T18:18:22.004Z,12.05
2023-09-25T18:20:50.867Z,12.52
2023-09-25T18:23:20.673Z,11.95
2023-09-25T18:25:56.102Z,13.75
2023-09-25T18:28:25.468Z,15.63
2023-09-25T18:30:55.311Z,10.70
2023-09-25T18:33:24.763Z,13.60
2023-09-25T18:35:53.633Z,12.48
2023-09-25T18:38:22.933Z,16.90
2023-09-25T18:40:54.042Z,12.15
2023-09-25T18:43:23.094Z,13.18
2023-09-25T18:45:54.576Z,12.77
2023-09-25T18:48:23.514Z,13.02
2023-09-25T18:50:52.039Z,20.08
2023-09-25T18:53:26.182Z,14.82
2023-09-25T18:55:56.764Z,17.15
2023-09-25T18:58:26.233Z,15.48
2023-09-25T19:00:57.340Z,13.98
2023-09-25T19:03:27.940Z,12.30
2023-09-25T19:05:57.600Z,17.38
2023-09-25T19:08:29.478Z,12.43
2023-09-25T19:10:59.613Z,15.20
2023-09-25T19:13:42.254Z,14.32
2023-09-25T19:16:12.088Z,16.73
2023-09-25T19:18:42.054Z,17.73
2023-09-25T19:21:12.623Z,21.20
2023-09-25T19:23:41.453Z,15.65
2023-09-25T19:26:11.601Z,21.05
2023-09-25T19:28:40.234Z,14.57
2023-09-25T19:31:16.374Z,18.63
2023-09-25T19:33:58.329Z,15.32
2023-09-25T19:36:27.133Z,15.10
2023-09-25T19:38:55.937Z,15.15
2023-09-25T19:41:25.817Z,13.63
2023-09-25T19:43:54.194Z,23.43
2023-09-25T19:46:23.453Z,15.20
2023-09-25T19:48:52.181Z,15.32
2023-09-25T19:51:20.816Z,14.27
2023-09-25T19:53:49.654Z,25.70
2023-09-25T19:56:19.362Z,13.93
2023-09-25T19:58:50.478Z,13.35
2023-09-25T20:01:19.889Z,14.48
2023-09-25T20:03:48.699Z,16.63
2023-09-25T20:06:18.797Z,14.20
2023-09-25T20:08:47.617Z,14.68
2023-09-25T20:11:16.479Z,21.23
2023-09-25T20:13:45.777Z,20.45
2023-09-25T20:16:16.166Z,13.80
2023-09-25T20:18:45.098Z,21.70
2023-09-25T20:21:14.169Z,18.85
2023-09-25T20:23:43.576Z,16.55
2023-09-25T20:26:12.272Z,18.65
2023-09-25T20:28:42.080Z,17.05
2023-09-25T20:31:11.492Z,17.25
2023-09-25T20:33:41.818Z,20.85
2023-09-25T20:36:12.665Z,18.48
2023-09-25T20:38:42.775Z,21.42
2023-09-25T20:41:11.759Z,20.25
2023-09-25T20:43:40.869Z,17.00
2023-09-25T20:46:09.530Z,18.50
2023-09-25T20:51:07.323Z,17.70
2023-09-25T20:53:36.088Z,18.52
2023-09-25T20:56:06.414Z,19.92
2023-09-25T20:58:35.123Z,21.83
2023-09-25T21:01:03.554Z,16.00
2023-09-25T21:03:51.796Z,16.63
2023-09-25T21:06:47.266Z,21.70
2023-09-25T21:09:16.065Z,20.15
2023-09-25T21:11:44.629Z,16.90
2023-09-25T21:14:13.941Z,19.33
2023-09-25T21:16:43.276Z,19.65
2023-09-25T21:19:15.445Z,18.10
2023-09-25T21:21:49.434Z,16.38
2023-09-25T21:24:18.711Z,20.73
2023-09-25T21:26:48.221Z,19.52
2023-09-25T21:29:20.770Z,23.73
2023-09-25T21:31:49.883Z,16.83
2023-09-25T21:34:18.852Z,18.98
2023-09-25T21:36:49.393Z,21.92
2023-09-25T21:39:18.293Z,17.73
2023-09-25T21:41:46.877Z,20.02
2023-09-25T21:44:15.873Z,37.88
2023-09-25T21:46:47.106Z,19.70
2023-09-25T21:49:22.537Z,22.70
2023-09-25T21:51:52.519Z,19.58
2023-09-25T21:54:21.166Z,19.95
2023-09-25T21:56:50.048Z,15.55
2023-09-25T21:59:20.642Z,16.83
2023-09-25T22:01:50.592Z,20.40
2023-09-25T22:04:19.522Z,25.08
2023-09-25T22:06:48.582Z,16.23
2023-09-25T22:09:20.022Z,16.27
2023-09-25T22:11:49.543Z,22.48
2023-09-25T22:14:18.002Z,18.00
2023-09-25T22:16:46.585Z,26.55
2023-09-25T22:19:15.641Z,17.45
2023-09-25T22:21:45.785Z,20.15
2023-09-25T22:24:16.341Z,15.38
2023-09-25T22:26:46.525Z,19.45
2023-09-25T22:29:15.767Z,21.17
2023-09-25T22:31:45.337Z,20.92
2023-09-25T22:34:14.649Z,17.92
2023-09-25T22:36:43.518Z,15.75
2023-09-25T22:39:13.882Z,14.38
2023-09-25T22:41:42.929Z,14.20
2023-09-25T22:44:13.477Z,18.83
2023-09-25T22:46:42.846Z,18.45
2023-09-25T22:49:11.838Z,17.73
2023-09-25T22:51:40.579Z,21.88
2023-09-25T22:54:09.278Z,20.25
2023-09-25T22:56:38.171Z,20.98
2023-09-25T22:59:07.097Z,17.60
2023-09-25T23:01:38.657Z,22.38
2023-09-25T23:04:08.256Z,17.40
2023-09-25T23:06:36.660Z,18.15
2023-09-25T23:09:06.220Z,19.52
2023-09-25T23:11:34.861Z,15.68
2023-09-25T23:14:04.393Z,22.98
2023-09-25T23:16:34.121Z,19.35
2023-09-25T23:19:04.314Z,22.23
2023-09-25T23:21:34.344Z,17.08
2023-09-25T23:24:02.989Z,23.35
2023-09-25T23:26:32.601Z,20.40
2023-09-25T23:29:01.965Z,18.33
2023-09-25T23:31:30.566Z,15.15
2023-09-25T23:33:59.716Z,18.13
2023-09-25T23:36:30.108Z,19.88
2023-09-25T23:38:59.394Z,17.27
2023-09-25T23:41:28.095Z,19.67
2023-09-25T23:43:56.655Z,16.88
2023-09-25T23:46:25.209Z,17.60
2023-09-25T23:48:55.703Z,19.08
2023-09-25T23:51:24.887Z,15.07
2023-09-25T23:53:54.894Z,16.05
2023-09-25T23:56:23.582Z,17.02
2023-09-25T23:58:52.185Z,19.80
